Time;durP1;ratioP1;P1;durP2;ratioP2;P2;SDS_P1;SDS_P2;PMS_P1;PMS_P2;Temp;Humidity;BMP_temperature;BMP_pressure;BME280_temperature;BME280_humidity;BME280_pressure;Samples;Min_cycle;Max_cycle;Signal;HPM_P1;HPM_P2
2021/07/02 00:00:50;;;;;;;15.18;7.13;;;;;;;14.31;92.04;101840.44;4959316;28;20062;-69
2021/07/02 00:03:18;;;;;;;17.08;7.32;;;;;;;14.30;92.06;101838.66;4957885;28;20506;-69
2021/07/02 00:05:45;;;;;;;15.25;7.22;;;;;;;14.28;92.52;101838.72;4952921;28;20066;-69
2021/07/02 00:08:15;;;;;;;18.08;8.48;;;;;;;14.29;92.22;101836.94;4957961;28;20054;-69
2021/07/02 00:10:43;;;;;;;16.52;7.10;;;;;;;14.28;93.13;101833.34;4951004;28;20443;-69
2021/07/02 00:13:11;;;;;;;16.75;8.05;;;;;;;14.27;93.24;101842.34;4956444;28;20414;-69
2021/07/02 00:15:38;;;;;;;15.80;7.10;;;;;;;14.29;92.61;101839.63;4956582;28;20077;-69
2021/07/02 00:18:06;;;;;;;18.83;9.07;;;;;;;14.29;92.74;101842.31;4956474;28;20462;-69
2021/07/02 00:20:34;;;;;;;19.38;8.80;;;;;;;14.31;92.78;101844.00;4955984;28;20082;-69
2021/07/02 00:23:01;;;;;;;18.08;8.30;;;;;;;14.31;92.85;101837.75;4955047;28;20141;-69
2021/07/02 00:25:31;;;;;;;20.00;8.90;;;;;;;14.28;93.22;101844.09;4954069;28;20129;-69
2021/07/02 00:27:58;;;;;;;19.65;8.77;;;;;;;14.33;92.90;101839.44;4958866;28;20094;-69
2021/07/02 00:30:26;;;;;;;23.13;9.95;;;;;;;14.29;93.95;101836.94;4955187;28;20073;-69
2021/07/02 00:32:54;;;;;;;18.05;9.20;;;;;;;14.28;94.40;101833.34;4960263;28;20088;-69
2021/07/02 00:35:21;;;;;;;29.42;11.65;;;;;;;14.30;94.69;101825.25;4956950;28;20072;-69
2021/07/02 00:37:49;;;;;;;21.67;10.00;;;;;;;14.25;95.24;101829.88;4959625;28;20094;-69
2021/07/02 00:40:17;;;;;;;22.92;11.40;;;;;;;14.29;95.54;101829.75;4957458;28;20293;-69
2021/07/02 00:42:46;;;;;;;22.70;11.48;;;;;;;14.25;96.03;101836.16;4959835;28;20094;-69
2021/07/02 00:45:14;;;;;;;26.88;10.90;;;;;;;14.25;95.44;101833.47;4958994;28;20161;-69
2021/07/02 00:47:42;;;;;;;27.58;11.15;;;;;;;14.25;95.65;101832.56;4958497;28;20096;-71
2021/07/02 00:50:12;;;;;;;24.33;11.82;;;;;;;14.24;95.55;101833.50;4959325;28;20048;-69
2021/07/02 00:52:40;;;;;;;26.65;12.40;;;;;;;14.13;96.52;101840.09;4959312;28;20066;-69
2021/07/02 00:55:09;;;;;;;27.15;11.95;;;;;;;14.12;96.34;101835.66;4960250;28;20047;-69
2021/07/02 00:57:37;;;;;;;27.63;12.35;;;;;;;14.15;96.33;101837.38;4956239;28;20067;-68
2021/07/02 01:00:09;;;;;;;24.63;12.23;;;;;;;14.16;96.16;101833.75;4962300;28;20063;-71
2021/07/02 01:02:37;;;;;;;27.55;12.63;;;;;;;14.19;96.60;101829.16;4953780;28;20066;-69
2021/07/02 01:05:07;;;;;;;22.73;11.13;;;;;;;14.16;96.48;101831.06;4958172;28;20094;-69
2021/07/02 01:07:35;;;;;;;24.30;11.82;;;;;;;14.10;96.75;101820.53;4957872;28;20106;-71
2021/07/02 01:10:04;;;;;;;30.70;13.73;;;;;;;14.16;96.75;101826.56;4961847;28;20145;-68
2021/07/02 01:12:32;;;;;;;25.65;11.90;;;;;;;14.13;96.58;101823.09;4959879;28;20071;-70
2021/07/02 01:15:00;;;;;;;32.22;13.48;;;;;;;14.14;97.36;101824.88;4962076;28;20185;-71
2021/07/02 01:17:29;;;;;;;31.42;13.80;;;;;;;14.14;97.66;101828.41;4957282;28;20170;-71
2021/07/02 01:19:58;;;;;;;27.30;12.98;;;;;;;14.11;97.50;101816.91;4961024;28;20071;-73
2021/07/02 01:22:28;;;;;;;30.30;12.63;;;;;;;14.11;97.44;101824.94;4950078;28;20287;-72
2021/07/02 01:24:57;;;;;;;27.15;13.35;;;;;;;14.02;98.00;101826.13;4958524;28;20542;-72
2021/07/02 01:27:24;;;;;;;28.52;11.65;;;;;;;14.05;97.78;101822.47;4952796;28;20062;-69
2021/07/02 01:29:52;;;;;;;29.67;12.98;;;;;;;13.99;98.12;101823.53;4953839;28;20058;-69
2021/07/02 01:32:20;;;;;;;29.60;13.27;;;;;;;14.02;98.32;101826.13;4956822;28;20185;-70
2021/07/02 01:34:49;;;;;;;25.42;13.07;;;;;;;14.02;98.18;101820.75;4956641;28;20094;-69
2021/07/02 01:37:16;;;;;;;29.02;11.48;;;;;;;14.04;98.52;101824.25;4956423;28;20074;-70
2021/07/02 01:39:45;;;;;;;35.45;14.48;;;;;;;14.01;98.22;101819.00;4957516;28;20063;-70
2021/07/02 01:42:13;;;;;;;26.20;11.77;;;;;;;14.03;98.38;101822.53;4953867;28;20098;-70
2021/07/02 01:44:41;;;;;;;34.55;14.40;;;;;;;13.95;98.90;101820.06;4957242;28;20197;-69
2021/07/02 01:47:09;;;;;;;28.73;12.75;;;;;;;14.00;98.97;101817.25;4964231;28;20145;-70
2021/07/02 01:49:37;;;;;;;29.92;12.85;;;;;;;14.04;98.70;101810.84;4954487;28;20114;-69
2021/07/02 01:52:05;;;;;;;33.55;13.52;;;;;;;14.03;98.89;101819.84;4958173;28;20454;-68
2021/07/02 01:54:33;;;;;;;28.23;12.45;;;;;;;14.04;98.61;101818.03;4951591;28;20603;-71
2021/07/02 01:57:06;;;;;;;30.15;11.95;;;;;;;13.98;98.40;101813.75;4955827;28;20110;-70
2021/07/02 01:59:34;;;;;;;26.70;11.82;;;;;;;13.96;99.25;101810.19;4953486;28;20070;-70
2021/07/02 02:02:01;;;;;;;25.58;11.50;;;;;;;13.94;99.19;101802.19;4955013;28;20690;-71
2021/07/02 02:04:29;;;;;;;27.27;11.50;;;;;;;13.99;99.37;101799.38;4954618;28;20547;-71
2021/07/02 02:06:57;;;;;;;25.08;12.43;;;;;;;14.03;100.00;101801.06;4956442;28;20121;-72
2021/07/02 02:09:25;;;;;;;21.27;10.52;;;;;;;13.98;100.00;101803.00;4951742;28;20618;-72
2021/07/02 02:11:52;;;;;;;21.13;8.68;;;;;;;13.98;99.43;101795.81;4961140;28;21030;-72
2021/07/02 02:14:21;;;;;;;19.02;9.23;;;;;;;13.97;99.39;101809.28;4950722;28;20082;-72
2021/07/02 02:16:49;;;;;;;22.58;10.57;;;;;;;13.99;100.00;101796.69;4954811;28;20085;-72
2021/07/02 02:19:17;;;;;;;20.80;10.10;;;;;;;13.97;99.75;101802.09;4954166;28;20192;-72
2021/07/02 02:21:45;;;;;;;19.80;9.25;;;;;;;14.03;99.71;101798.38;4952087;28;20067;-72
2021/07/02 02:24:13;;;;;;;20.75;9.32;;;;;;;13.97;99.86;101802.09;4957721;28;20316;-73
2021/07/02 02:26:40;;;;;;;19.60;9.68;;;;;;;14.00;99.86;101804.69;4951174;28;20085;-72
2021/07/02 02:29:08;;;;;;;20.48;10.02;;;;;;;13.96;99.47;101792.31;4955145;28;20153;-73
2021/07/02 02:31:37;;;;;;;19.95;9.98;;;;;;;13.95;99.57;101797.72;4953479;28;20168;-75
2021/07/02 02:34:05;;;;;;;23.77;10.27;;;;;;;13.94;99.65;101804.00;4952085;28;20127;-75
2021/07/02 02:36:33;;;;;;;21.98;10.70;;;;;;;13.95;99.70;101803.97;4954812;28;20146;-74
2021/07/02 02:39:00;;;;;;;21.52;8.80;;;;;;;13.95;99.38;101789.69;4959385;28;20153;-73
2021/07/02 02:41:28;;;;;;;17.88;8.80;;;;;;;14.00;99.37;101796.66;4954707;28;20145;-73
2021/07/02 02:43:55;;;;;;;22.35;9.63;;;;;;;13.94;99.51;101794.16;4960199;28;20073;-73
2021/07/02 02:46:23;;;;;;;16.23;7.50;;;;;;;13.98;99.40;101794.97;4952885;28;20133;-73
2021/07/02 02:48:52;;;;;;;15.90;8.60;;;;;;;13.97;99.28;101791.38;4959029;28;20153;-72
2021/07/02 02:51:20;;;;;;;17.75;7.93;;;;;;;13.97;99.48;101791.38;4959276;28;20542;-72
2021/07/02 02:53:48;;;;;;;17.25;8.05;;;;;;;13.99;99.66;101791.34;4956337;28;20120;-73
2021/07/02 02:56:15;;;;;;;18.10;7.70;;;;;;;13.93;99.56;101788.84;4956378;28;20062;-73
2021/07/02 02:58:43;;;;;;;14.15;8.10;;;;;;;13.96;99.67;101797.69;4961381;28;21093;-73
2021/07/02 03:01:11;;;;;;;16.10;7.72;;;;;;;13.91;100.00;101796.94;4955792;28;20450;-74
2021/07/02 03:03:38;;;;;;;15.52;7.63;;;;;;;13.94;99.72;101801.31;4961552;28;20066;-76
2021/07/02 03:06:08;;;;;;;12.88;7.07;;;;;;;13.95;99.69;101795.03;4952279;28;20109;-74
2021/07/02 03:08:36;;;;;;;16.63;8.05;;;;;;;13.91;100.00;101791.59;4958265;28;20051;-74
2021/07/02 03:11:03;;;;;;;21.15;8.75;;;;;;;13.92;100.00;101790.63;4959572;28;20345;-75
2021/07/02 03:13:31;;;;;;;17.02;7.72;;;;;;;13.92;100.00;101787.97;4956799;28;20101;-75
2021/07/02 03:15:59;;;;;;;17.27;7.95;;;;;;;13.92;100.00;101787.97;4959027;28;20062;-74
2021/07/02 03:18:27;;;;;;;19.80;9.13;;;;;;;13.96;100.00;101788.72;4954843;28;20060;-75
2021/07/02 03:20:55;;;;;;;17.30;7.35;;;;;;;13.96;100.00;101788.72;4956099;28;20086;-74
2021/07/02 03:23:24;;;;;;;23.45;9.63;;;;;;;13.91;100.00;101786.22;4957706;28;20070;-70
2021/07/02 03:25:51;;;;;;;19.42;9.60;;;;;;;13.93;100.00;101788.84;4956991;28;20063;-71
2021/07/02 03:28:19;;;;;;;19.52;8.45;;;;;;;13.92;100.00;101787.09;4957411;28;20078;-71
2021/07/02 03:30:47;;;;;;;21.30;9.27;;;;;;;13.87;100.00;101784.53;4963006;28;20066;-71
2021/07/02 03:33:15;;;;;;;26.15;11.00;;;;;;;13.93;100.00;101789.72;4956748;28;20077;-71
2021/07/02 03:35:43;;;;;;;22.80;11.10;;;;;;;13.88;100.00;101793.50;4958299;28;20054;-70
2021/07/02 03:38:10;;;;;;;26.60;10.63;;;;;;;13.88;100.00;101791.66;4954782;28;20097;-70
2021/07/02 03:40:39;;;;;;;24.30;10.25;;;;;;;13.87;100.00;101797.94;4957526;28;20067;-71
2021/07/02 03:43:07;;;;;;;27.88;12.48;;;;;;;13.87;100.00;101797.94;4957341;28;20062;-70
2021/07/02 03:45:35;;;;;;;23.92;9.93;;;;;;;13.90;100.00;101794.31;4954631;28;20133;-70
2021/07/02 03:48:03;;;;;;;28.50;10.13;;;;;;;13.94;100.00;101801.31;4953489;28;20074;-70
2021/07/02 03:50:31;;;;;;;25.63;10.38;;;;;;;13.88;100.00;101810.44;4958632;28;20122;-70
2021/07/02 03:52:58;;;;;;;25.08;10.25;;;;;;;13.90;100.00;101802.34;4952001;28;20321;-69
2021/07/02 03:55:26;;;;;;;21.35;9.85;;;;;;;13.94;100.00;101806.69;4958566;28;20067;-71
2021/07/02 03:57:59;;;;;;;21.20;10.65;;;;;;;13.98;100.00;101808.38;4958354;28;20062;-71
2021/07/02 04:00:27;;;;;;;25.33;11.00;;;;;;;13.94;100.00;101807.56;4958671;28;20062;-70
2021/07/02 04:02:55;;;;;;;27.52;12.32;;;;;;;13.95;100.00;101811.16;4959943;28;20067;-70
2021/07/02 04:05:22;;;;;;;23.52;10.70;;;;;;;13.92;100.00;101804.06;4955706;28;20067;-70
2021/07/02 04:07:50;;;;;;;28.63;12.30;;;;;;;13.93;100.00;101803.13;4960305;28;20430;-70
2021/07/02 04:10:18;;;;;;;25.63;11.52;;;;;;;13.95;100.00;101806.66;4956495;28;20536;-71
2021/07/02 04:12:46;;;;;;;20.75;10.77;;;;;;;13.98;100.00;101808.38;4955598;28;20067;-71
2021/07/02 04:15:16;;;;;;;20.88;10.45;;;;;;;14.01;100.00;101805.56;4957151;28;20058;-71
2021/07/02 04:17:43;;;;;;;24.88;10.80;;;;;;;14.04;100.00;101802.78;4958689;28;20063;-71
2021/07/02 04:20:13;;;;;;;24.30;11.30;;;;;;;14.06;100.00;101809.00;4953200;28;20145;-70
2021/07/02 04:22:41;;;;;;;26.58;12.02;;;;;;;14.11;100.00;101808.84;4962829;28;20062;-71
2021/07/02 04:25:11;;;;;;;23.05;10.90;;;;;;;14.09;100.00;101808.91;4952122;28;20062;-70
2021/07/02 04:27:40;;;;;;;21.42;10.25;;;;;;;14.12;100.00;101810.63;4958194;28;20063;-70
2021/07/02 04:30:10;;;;;;;24.77;11.00;;;;;;;14.11;100.00;101808.84;4955150;28;20447;-70
2021/07/02 04:32:39;;;;;;;21.52;10.60;;;;;;;14.12;100.00;101811.50;4954998;28;20071;-70
2021/07/02 04:35:11;;;;;;;22.98;11.40;;;;;;;14.13;100.00;101805.22;4955361;28;20094;-70
2021/07/02 04:37:40;;;;;;;25.58;11.40;;;;;;;14.09;100.00;101803.53;4956675;28;20063;-70
2021/07/02 04:40:10;;;;;;;27.92;12.93;;;;;;;14.16;100.00;101810.44;4953794;28;20074;-69
2021/07/02 04:42:38;;;;;;;26.13;11.25;;;;;;;14.16;100.00;101809.59;4962892;28;20591;-70
2021/07/02 04:45:07;;;;;;;22.88;10.70;;;;;;;14.17;100.00;101808.66;4950273;28;20062;-69
2021/07/02 04:47:35;;;;;;;20.13;9.70;;;;;;;14.20;100.00;101800.53;4958219;28;20095;-69
2021/07/02 04:50:07;;;;;;;22.08;10.93;;;;;;;14.18;100.00;101805.94;4956572;28;20080;-69
2021/07/02 04:52:34;;;;;;;22.85;10.38;;;;;;;14.18;100.00;101810.41;4954826;28;20063;-69
2021/07/02 04:55:03;;;;;;;24.25;10.77;;;;;;;14.23;100.00;101807.59;4957390;28;20075;-69
2021/07/02 04:57:31;;;;;;;22.00;11.50;;;;;;;14.24;100.00;101809.34;4954178;28;20103;-70
2021/07/02 05:00:01;;;;;;;21.70;10.60;;;;;;;14.23;100.00;101799.53;4956333;28;20067;-70
2021/07/02 05:02:29;;;;;;;26.27;10.70;;;;;;;14.28;100.00;101797.56;4955698;28;20071;-71
2021/07/02 05:04:57;;;;;;;23.77;11.27;;;;;;;14.28;100.00;101803.81;4954766;28;20059;-71
2021/07/02 05:07:26;;;;;;;22.02;10.68;;;;;;;14.29;100.00;101812.78;4954808;28;20059;-72
2021/07/02 05:09:54;;;;;;;21.27;9.43;;;;;;;14.32;100.00;101802.81;4959447;28;20074;-72
2021/07/02 05:12:22;;;;;;;21.08;10.68;;;;;;;14.33;100.00;101803.69;4956099;28;20087;-71
2021/07/02 05:14:49;;;;;;;19.92;9.77;;;;;;;14.38;100.00;101801.72;4963031;28;20070;-72
2021/07/02 05:17:17;;;;;;;18.70;8.85;;;;;;;14.41;100.00;101811.50;4958906;28;20125;-71
2021/07/02 05:19:45;;;;;;;21.75;10.40;;;;;;;14.35;100.00;101810.78;4960010;28;20082;-70
2021/07/02 05:22:16;;;;;;;21.17;10.32;;;;;;;14.32;100.00;101809.97;4962630;28;20093;-71
2021/07/02 05:24:46;;;;;;;21.95;11.02;;;;;;;14.39;100.00;101809.72;4957338;28;20047;-71
2021/07/02 05:27:15;;;;;;;23.25;9.45;;;;;;;14.37;100.00;101813.41;4957317;28;20047;-74
2021/07/02 05:29:44;;;;;;;21.25;9.40;;;;;;;14.31;100.00;101811.78;4962104;28;20121;-74
2021/07/02 05:32:12;;;;;;;18.05;8.90;;;;;;;14.28;100.00;101811.88;4956784;28;20090;-74
2021/07/02 05:34:57;;;;;;;20.70;9.93;;;;;;;14.30;100.00;101811.81;4965028;28;20067;-74
2021/07/02 05:37:25;;;;;;;21.55;8.60;;;;;;;14.35;100.00;101813.47;4953999;28;20145;-74
2021/07/02 05:39:54;;;;;;;20.52;9.05;;;;;;;14.30;100.00;101817.19;4960719;28;20121;-74
2021/07/02 05:42:24;;;;;;;18.63;9.40;;;;;;;14.34;100.00;101818.88;4957733;28;20058;-72
2021/07/02 05:44:52;;;;;;;18.92;9.20;;;;;;;14.29;100.00;101821.69;4956546;28;20070;-72
2021/07/02 05:47:22;;;;;;;17.38;8.68;;;;;;;14.27;100.00;101812.81;4956854;28;20323;-72
2021/07/02 05:49:50;;;;;;;21.83;10.20;;;;;;;14.28;100.00;101819.91;4958430;28;20071;-72
2021/07/02 05:52:18;;;;;;;18.10;9.02;;;;;;;14.30;100.00;101819.88;4958076;28;20474;-72
2021/07/02 05:54:48;;;;;;;19.02;9.43;;;;;;;14.37;100.00;101821.47;4961846;28;20137;-72
2021/07/02 05:57:17;;;;;;;17.90;8.75;;;;;;;14.39;100.00;101823.16;4956560;28;20074;-72
2021/07/02 05:59:44;;;;;;;18.67;8.48;;;;;;;14.41;100.00;101828.47;4958697;28;20062;-74
2021/07/02 06:02:12;;;;;;;18.20;9.10;;;;;;;14.42;100.00;101830.25;4963330;28;20384;-74
2021/07/02 06:04:40;;;;;;;19.73;9.65;;;;;;;14.41;100.00;101831.16;4954121;28;20073;-74
2021/07/02 06:07:07;;;;;;;20.23;10.63;;;;;;;14.43;100.00;101836.47;4962211;28;20110;-74
2021/07/02 06:09:36;;;;;;;17.85;9.55;;;;;;;14.50;100.00;101838.03;4956049;28;20055;-74
2021/07/02 06:12:05;;;;;;;19.23;9.07;;;;;;;14.51;100.00;101838.00;4955531;28;20102;-74
2021/07/02 06:14:34;;;;;;;18.33;8.32;;;;;;;14.55;100.00;101828.88;4959578;28;20063;-74
2021/07/02 06:17:02;;;;;;;19.35;10.80;;;;;;;14.55;100.00;101833.38;4955428;28;20197;-74
2021/07/02 06:19:30;;;;;;;21.73;10.88;;;;;;;14.55;100.00;101834.25;4954856;28;20053;-74
2021/07/02 06:21:58;;;;;;;18.40;10.10;;;;;;;14.59;100.00;101835.06;4958386;28;20067;-74
2021/07/02 06:24:26;;;;;;;15.88;9.32;;;;;;;14.67;100.00;101832.13;4952279;28;20063;-74
2021/07/02 06:26:53;;;;;;;19.25;9.63;;;;;;;14.72;100.00;101836.41;4958387;28;20099;-74
2021/07/02 06:29:21;;;;;;;21.75;10.68;;;;;;;14.74;100.00;101839.97;4954775;28;20058;-74
2021/07/02 06:31:50;;;;;;;20.23;10.45;;;;;;;14.71;100.00;101842.75;4957703;28;20460;-74
2021/07/02 06:34:18;;;;;;;17.75;9.88;;;;;;;14.84;100.00;101840.50;4954857;28;20141;-74
2021/07/02 06:36:45;;;;;;;20.70;11.13;;;;;;;14.85;100.00;101850.34;4954555;28;20149;-74
2021/07/02 06:39:13;;;;;;;20.92;10.18;;;;;;;14.84;100.00;101845.88;4956230;28;20446;-74
2021/07/02 06:41:41;;;;;;;22.88;10.57;;;;;;;14.96;100.00;101846.41;4957494;28;20498;-74
2021/07/02 06:44:08;;;;;;;19.90;10.18;;;;;;;15.08;100.00;101854.03;4953448;28;20188;-74
2021/07/02 06:46:36;;;;;;;22.63;10.20;;;;;;;15.17;100.00;101861.78;4955838;28;20066;-75
2021/07/02 06:49:06;;;;;;;20.23;9.13;;;;;;;15.17;100.00;101861.78;4957301;28;20073;-73
2021/07/02 06:51:34;;;;;;;23.08;10.32;;;;;;;15.07;100.00;101863.91;4955202;28;21069;-74
2021/07/02 06:54:02;;;;;;;20.67;9.93;;;;;;;15.04;100.00;101860.44;4956966;28;20062;-73
2021/07/02 06:56:30;;;;;;;18.45;8.15;;;;;;;15.13;100.00;101858.31;4954368;28;20098;-73
2021/07/02 06:58:59;;;;;;;16.35;7.30;;;;;;;15.03;100.00;101858.69;4961937;28;20070;-73
2021/07/02 07:01:27;;;;;;;15.85;7.43;;;;;;;14.99;100.00;101867.81;4956884;28;20067;-69
2021/07/02 07:03:55;;;;;;;19.35;8.55;;;;;;;14.93;100.00;101863.50;4954508;28;20529;-69
2021/07/02 07:06:24;;;;;;;16.67;8.63;;;;;;;15.02;100.00;101865.88;4953370;28;20462;-68
2021/07/02 07:08:52;;;;;;;19.55;8.35;;;;;;;15.15;100.00;101866.31;4956286;28;20102;-72
2021/07/02 07:11:19;;;;;;;22.00;8.88;;;;;;;15.25;100.00;101866.88;4954929;28;20070;-71
2021/07/02 07:13:47;;;;;;;17.60;8.57;;;;;;;15.46;99.84;101866.13;4957049;28;20073;-68
2021/07/02 07:16:15;;;;;;;17.17;7.78;;;;;;;15.56;99.44;101874.75;4951969;28;20158;-69
2021/07/02 07:18:43;;;;;;;22.92;9.43;;;;;;;15.55;98.42;101878.34;4956303;28;20449;-68
2021/07/02 07:21:11;;;;;;;21.65;9.80;;;;;;;15.65;98.33;101873.53;4953965;28;20446;-69
2021/07/02 07:23:40;;;;;;;19.10;8.32;;;;;;;15.72;97.09;101874.19;4954771;28;20338;-68
2021/07/02 07:26:08;;;;;;;18.02;9.15;;;;;;;15.84;97.33;101874.59;4958303;28;20366;-68
2021/07/02 07:28:35;;;;;;;19.30;8.57;;;;;;;15.98;97.01;101882.16;4952740;28;20098;-72
2021/07/02 07:31:05;;;;;;;18.38;8.38;;;;;;;16.20;96.32;101873.25;4958530;28;20098;-71
2021/07/02 07:33:37;;;;;;;25.13;9.50;;;;;;;16.26;94.25;101875.72;4954072;28;20066;-69
2021/07/02 07:36:05;;;;;;;19.67;8.95;;;;;;;16.41;91.62;101861.63;4955560;28;20098;-70
2021/07/02 07:38:33;;;;;;;21.35;9.70;;;;;;;16.53;91.95;101868.34;4951773;28;20101;-70
2021/07/02 07:41:02;;;;;;;21.10;9.35;;;;;;;17.08;93.93;101862.47;4958510;28;20063;-69
2021/07/02 07:43:30;;;;;;;18.67;9.40;;;;;;;17.09;91.48;101872.31;4954398;28;20108;-69
2021/07/02 07:45:58;;;;;;;22.63;10.13;;;;;;;17.11;91.19;101866.84;4957243;28;20062;-69
2021/07/02 07:48:25;;;;;;;18.02;9.55;;;;;;;17.16;89.21;101870.22;4951717;28;20437;-70
2021/07/02 07:51:01;;;;;;;24.42;10.30;;;;;;;16.99;89.40;101877.25;4954597;28;20110;-70
2021/07/02 07:53:29;;;;;;;23.63;10.80;;;;;;;16.82;89.44;101879.72;4957204;28;20046;-70
2021/07/02 07:55:57;;;;;;;22.33;9.10;;;;;;;16.77;89.43;101884.41;4956932;28;20426;-70
2021/07/02 07:58:26;;;;;;;19.52;8.57;;;;;;;16.67;89.66;101885.75;4953661;28;20098;-70
2021/07/02 08:00:57;;;;;;;21.85;9.20;;;;;;;16.69;90.71;101886.56;4953536;28;20062;-70
2021/07/02 08:03:29;;;;;;;23.90;10.00;;;;;;;16.63;90.64;101887.69;4953238;28;20099;-70
2021/07/02 08:05:57;;;;;;;23.55;10.27;;;;;;;16.95;91.25;101886.38;4957833;28;20067;-69
2021/07/02 08:08:24;;;;;;;23.83;10.35;;;;;;;16.88;88.85;101892.09;4950965;28;20086;-69
2021/07/02 08:10:52;;;;;;;24.33;9.93;;;;;;;16.66;89.67;101889.41;4960818;28;20090;-70
2021/07/02 08:13:20;;;;;;;23.52;10.65;;;;;;;16.91;89.44;101895.56;4952139;28;23032;-70
2021/07/02 08:15:49;;;;;;;22.75;10.18;;;;;;;16.81;88.87;101897.72;4957022;28;20570;-70
2021/07/02 08:18:18;;;;;;;24.83;11.07;;;;;;;16.86;89.52;101894.00;4951805;28;20075;-71
2021/07/02 08:20:45;;;;;;;22.33;10.40;;;;;;;16.96;89.45;101898.94;4956200;28;20047;-71
2021/07/02 08:23:13;;;;;;;29.48;10.73;;;;;;;16.88;87.61;101902.88;4961449;28;20066;-69
2021/07/02 08:25:41;;;;;;;22.70;10.02;;;;;;;16.80;88.42;101908.56;4954272;28;20071;-69
2021/07/02 08:30:55;;;;;;;23.55;9.57;;;;;;;16.97;88.94;101905.19;4956977;28;20190;-70
2021/07/02 08:33:23;;;;;;;24.70;10.05;;;;;;;17.07;87.56;101905.69;4955885;28;20149;-69
2021/07/02 08:35:51;;;;;;;20.52;8.90;;;;;;;17.12;87.32;101909.94;4956242;28;20066;-71
2021/07/02 08:38:19;;;;;;;25.10;10.55;;;;;;;17.18;87.29;101906.97;4960481;28;20458;-72
2021/07/02 08:40:46;;;;;;;25.75;10.95;;;;;;;17.38;87.45;101915.16;4957186;28;20081;-72
2021/07/02 08:43:15;;;;;;;19.77;8.95;;;;;;;17.43;85.88;101907.72;4961877;28;20443;-72
2021/07/02 08:45:45;;;;;;;19.45;9.00;;;;;;;17.35;85.70;101924.28;4957454;28;20070;-72
2021/07/02 08:48:19;;;;;;;19.77;9.15;;;;;;;17.18;85.08;101923.16;4957976;28;20355;-71
2021/07/02 08:50:48;;;;;;;21.63;9.60;;;;;;;17.12;85.27;101922.53;4955532;28;20463;-71
2021/07/02 08:53:15;;;;;;;18.23;8.05;;;;;;;17.10;85.16;101929.81;4960687;28;20063;-71
2021/07/02 08:55:43;;;;;;;16.73;8.18;;;;;;;17.03;84.04;101920.25;4959428;28;20078;-71
2021/07/02 08:58:13;;;;;;;18.52;7.55;;;;;;;17.38;85.92;101926.81;4961127;28;20062;-71
2021/07/02 09:00:41;;;;;;;17.17;8.13;;;;;;;17.50;85.51;101925.41;4957072;28;20347;-71
2021/07/02 09:03:29;;;;;;;17.90;9.10;;;;;;;17.31;84.57;101925.31;4964015;28;20446;-70
2021/07/02 09:06:13;;;;;;;19.65;8.85;;;;;;;17.21;85.23;101935.63;4955268;28;20311;-71
2021/07/02 09:08:41;;;;;;;17.30;8.00;;;;;;;17.17;85.48;101931.31;4962092;28;20062;-71
2021/07/02 09:11:25;;;;;;;17.42;7.68;;;;;;;17.26;84.61;101936.31;4956422;28;20063;-71
2021/07/02 09:13:54;;;;;;;17.05;8.50;;;;;;;17.07;84.55;101941.59;4957356;28;20636;-71
2021/07/02 09:16:23;;;;;;;18.13;7.47;;;;;;;16.85;85.18;101941.63;4955778;28;20564;-70
2021/07/02 09:18:53;;;;;;;13.63;7.05;;;;;;;16.81;85.85;101946.22;4952345;28;20058;-72
2021/07/02 09:21:25;;;;;;;15.20;7.50;;;;;;;16.85;86.34;101940.75;4957083;28;20067;-72
2021/07/02 09:23:57;;;;;;;15.95;8.40;;;;;;;16.87;86.76;101941.56;4960706;28;20063;-72
2021/07/02 09:26:34;;;;;;;19.67;9.00;;;;;;;16.68;86.07;101955.75;4955934;28;20074;-72
2021/07/02 09:29:17;;;;;;;20.48;8.27;;;;;;;16.67;85.79;101947.72;4961650;28;20074;-73
2021/07/02 09:31:55;;;;;;;20.23;8.48;;;;;;;16.72;86.34;101943.91;4951897;28;20191;-72
2021/07/02 09:34:44;;;;;;;20.35;9.38;;;;;;;16.79;85.74;101936.47;4959996;28;20552;-72
2021/07/02 09:37:22;;;;;;;20.88;9.40;;;;;;;17.11;85.63;101945.94;4956575;28;20050;-72
2021/07/02 09:39:49;;;;;;;23.15;9.52;;;;;;;17.14;84.95;101953.88;4957350;28;20094;-73
2021/07/02 09:42:23;;;;;;;25.70;10.70;;;;;;;17.11;83.17;101951.34;4957990;28;20516;-73
2021/07/02 09:45:02;;;;;;;;;;;;;;;17.18;83.64;101952.81;4956660;28;20403;-71
2021/07/02 09:47:31;;;;;;;22.05;10.57;;;;;;;17.14;83.00;101959.28;4955244;28;20028;-73
2021/07/02 09:50:20;;;;;;;23.30;10.60;;;;;;;17.33;83.92;101959.41;4964344;28;20149;-73
2021/07/02 09:52:51;;;;;;;22.65;9.52;;;;;;;17.61;83.62;101963.59;4954321;28;20070;-71
2021/07/02 09:55:21;;;;;;;24.02;10.52;;;;;;;17.70;82.59;101965.00;4961478;28;20070;-72
2021/07/02 09:57:53;;;;;;;21.27;10.10;;;;;;;17.70;82.32;101963.16;4955150;28;20073;-72
2021/07/02 10:00:21;;;;;;;21.50;10.75;;;;;;;17.85;83.20;101960.75;4958753;28;20153;-70
2021/07/02 10:02:57;;;;;;;23.88;10.77;;;;;;;18.04;82.67;101977.03;4954276;28;20835;-71
2021/07/02 10:05:27;;;;;;;21.40;10.07;;;;;;;17.82;80.50;101977.94;4954732;28;20080;-71
2021/07/02 10:08:04;;;;;;;21.42;10.23;;;;;;;17.98;81.25;101975.50;4953126;28;20140;-71
2021/07/02 10:10:32;;;;;;;21.63;9.93;;;;;;;17.91;80.83;101976.69;4952606;28;20442;-71
2021/07/02 10:13:00;;;;;;;22.33;9.90;;;;;;;18.03;81.30;101980.66;4955740;28;20906;-71
2021/07/02 10:15:30;;;;;;;20.75;8.90;;;;;;;18.39;80.97;101985.31;4956653;28;20109;-71
2021/07/02 10:18:00;;;;;;;24.38;11.10;;;;;;;18.31;78.89;101991.09;4951281;28;20066;-71
2021/07/02 10:20:32;;;;;;;19.77;9.48;;;;;;;18.03;78.65;101986.06;4952356;28;20114;-71
2021/07/02 10:23:01;;;;;;;20.23;9.45;;;;;;;17.94;78.11;101983.78;4958588;28;20070;-71
2021/07/02 10:25:30;;;;;;;19.35;9.35;;;;;;;18.38;79.12;101981.75;4948971;28;20114;-73
2021/07/02 10:27:59;;;;;;;21.27;9.65;;;;;;;18.22;76.45;101986.13;4959793;28;20070;-71
2021/07/02 10:30:27;;;;;;;22.27;8.95;;;;;;;18.55;77.93;101989.06;4950731;28;20063;-71
2021/07/02 10:32:57;;;;;;;22.33;10.32;;;;;;;18.82;77.28;101984.19;4954924;28;20153;-71
2021/07/02 10:35:28;;;;;;;23.67;11.27;;;;;;;18.54;77.74;101983.72;4953702;28;20334;-72
2021/07/02 10:38:00;;;;;;;20.85;9.98;;;;;;;18.92;76.05;101984.63;4950784;28;20262;-72
2021/07/02 10:40:33;;;;;;;21.20;10.18;;;;;;;18.55;75.35;101990.88;4953332;28;20054;-71
2021/07/02 10:43:19;;;;;;;21.27;9.57;;;;;;;18.89;76.05;101989.28;4954084;28;20588;-71
2021/07/02 10:46:09;;;;;;;22.63;10.05;;;;;;;18.76;76.21;101981.75;4952428;28;20110;-72
2021/07/02 10:48:57;;;;;;;21.33;9.90;;;;;;;18.98;75.14;101976.19;4956124;28;20217;-72
2021/07/02 10:51:59;;;;;;;20.50;10.40;;;;;;;19.28;74.20;101970.19;4950621;28;20078;-71
2021/07/02 10:54:35;;;;;;;22.38;10.43;;;;;;;19.94;72.02;101977.63;4954836;28;20071;-71
2021/07/02 10:57:14;;;;;;;20.67;8.93;;;;;;;19.85;70.42;101979.94;4947146;28;20070;-71
2021/07/02 11:00:16;;;;;;;25.27;9.95;;;;;;;20.00;70.56;101991.78;4954707;28;20054;-72
2021/07/02 11:02:44;;;;;;;19.58;9.32;;;;;;;19.95;70.13;101992.91;4953679;28;20075;-72
2021/07/02 11:05:34;;;;;;;23.55;10.90;;;;;;;20.22;69.90;101988.78;4953874;28;20063;-72
2021/07/02 11:08:02;;;;;;;20.80;8.68;;;;;;;20.62;70.13;101992.91;4959308;28;20157;-71
2021/07/02 11:11:00;;;;;;;19.10;9.15;;;;;;;20.48;67.88;101980.09;4952760;28;20065;-72
2021/07/02 11:13:27;;;;;;;17.23;8.48;;;;;;;20.12;68.49;101983.00;4961814;28;20161;-73
2021/07/02 11:16:08;;;;;;;17.15;8.48;;;;;;;19.87;70.50;101983.41;4954551;28;20067;-72
2021/07/02 11:18:40;;;;;;;20.98;9.70;;;;;;;20.29;70.45;101979.34;4957996;28;20410;-73
2021/07/02 11:21:14;;;;;;;20.02;10.25;;;;;;;20.07;69.06;101975.09;4949406;28;20497;-72
2021/07/02 11:23:42;;;;;;;21.23;9.82;;;;;;;20.46;70.26;101973.00;4954512;28;20093;-69
2021/07/02 11:26:32;;;;;;;16.05;9.18;;;;;;;20.32;69.32;101976.47;4955738;28;20528;-69